Time;durP1;ratioP1;P1;durP2;ratioP2;P2;SDS_P1;SDS_P2;PMS_P1;PMS_P2;Temp;Humidity;BMP_temperature;BMP_pressure;BME280_temperature;BME280_humidity;BME280_pressure;Samples;Min_cycle;Max_cycle;Signal;HPM_P1;HPM_P2
2022/01/30 00:00:41;;;;;;;13.77;4.68;;;21.60;62.80;;;;;;5031169;28;20030;-73
2022/01/30 00:03:07;;;;;;;14.25;4.97;;;21.60;62.80;;;;;;5032649;28;20057;-73
2022/01/30 00:05:34;;;;;;;14.18;4.65;;;21.60;62.60;;;;;;5035489;28;20060;-72
2022/01/30 00:08:01;;;;;;;10.13;3.97;;;21.60;62.60;;;;;;5034124;28;20038;-72
2022/01/30 00:10:27;;;;;;;15.45;4.53;;;21.60;62.50;;;;;;5034658;28;20021;-73
2022/01/30 00:12:59;;;;;;;14.27;4.55;;;21.50;62.50;;;;;;5035492;28;20022;-73
2022/01/30 00:15:50;;;;;;;13.07;4.07;;;21.60;62.60;;;;;;5035307;28;20033;-73
2022/01/30 00:20:46;;;;;;;11.27;3.97;;;21.50;62.50;;;;;;5034930;28;20485;-73
2022/01/30 00:23:23;;;;;;;13.18;3.50;;;21.60;62.60;;;;;;5034671;28;20033;-73
2022/01/30 00:25:52;;;;;;;15.30;4.47;;;21.50;62.50;;;;;;5035219;28;20041;-70
2022/01/30 00:28:20;;;;;;;13.45;4.35;;;21.50;62.50;;;;;;5034129;28;20425;-73
2022/01/30 00:30:46;;;;;;;12.98;4.05;;;21.50;62.50;;;;;;5017130;28;20036;-73
2022/01/30 00:33:12;;;;;;;13.70;4.10;;;21.50;62.50;;;;;;5035183;28;20025;-73
2022/01/30 00:35:38;;;;;;;11.85;3.95;;;21.50;62.40;;;;;;5017454;28;20259;-73
2022/01/30 00:38:10;;;;;;;11.23;4.00;;;21.50;62.40;;;;;;5034988;28;20041;-73
2022/01/30 00:40:36;;;;;;;12.43;3.72;;;21.60;62.50;;;;;;5017090;28;20036;-72
2022/01/30 00:43:03;;;;;;;12.07;3.95;;;21.50;62.30;;;;;;5017523;28;20095;-73
2022/01/30 00:45:28;;;;;;;12.15;3.92;;;21.50;62.40;;;;;;5033857;28;20065;-72
2022/01/30 00:47:54;;;;;;;11.32;4.03;;;21.50;62.30;;;;;;5034710;28;20488;-73
2022/01/30 00:50:20;;;;;;;10.75;3.55;;;21.50;62.30;;;;;;5016898;28;20030;-73
2022/01/30 00:52:50;;;;;;;13.85;4.28;;;21.50;62.20;;;;;;5017066;28;20022;-73
2022/01/30 00:55:16;;;;;;;;;;;21.50;62.30;;;;;;5017424;28;20105;-73
2022/01/30 00:57:42;;;;;;;13.30;4.55;;;21.50;62.20;;;;;;5034399;28;19943;-73
2022/01/30 01:00:08;;;;;;;10.77;4.10;;;21.50;62.10;;;;;;5034290;28;20483;-72
2022/01/30 01:02:34;;;;;;;11.80;3.80;;;21.50;62.10;;;;;;5016625;28;20041;-73
2022/01/30 01:05:04;;;;;;;13.20;4.40;;;21.50;62.10;;;;;;5034673;28;20112;-72
2022/01/30 01:07:32;;;;;;;9.43;3.50;;;21.50;62.20;;;;;;5034379;28;20486;-73
2022/01/30 01:10:07;;;;;;;11.93;4.05;;;21.50;62.00;;;;;;5016584;28;20029;-72
2022/01/30 01:23:59;;;;;;;12.50;3.80;;;21.50;61.60;;;;;;4992537;28;20030;-72
2022/01/30 01:26:26;;;;;;;12.00;3.97;;;21.50;61.70;;;;;;5000327;28;20052;-73
2022/01/30 01:28:53;;;;;;;10.77;4.10;;;21.50;61.40;;;;;;5000381;28;20045;-72
2022/01/30 01:31:19;;;;;;;12.05;3.97;;;21.50;61.50;;;;;;5032466;28;20037;-72
2022/01/30 01:34:18;;;;;;;10.25;3.70;;;21.50;61.50;;;;;;5034134;28;20036;-72
2022/01/30 01:36:44;;;;;;;10.77;3.50;;;21.50;61.40;;;;;;5016201;28;20025;-72
2022/01/30 01:39:10;;;;;;;12.25;3.88;;;21.50;61.40;;;;;;5016193;28;20029;-73
2022/01/30 01:41:36;;;;;;;10.40;3.78;;;21.40;61.40;;;;;;5015807;28;20042;-73
2022/01/30 01:44:03;;;;;;;10.70;3.28;;;21.50;61.50;;;;;;5015974;28;20104;-73
2022/01/30 01:46:34;;;;;;;10.13;3.50;;;21.50;61.40;;;;;;5015807;28;20029;-73
2022/01/30 01:49:00;;;;;;;10.73;3.70;;;21.50;61.30;;;;;;5033683;28;20030;-73
2022/01/30 01:51:30;;;;;;;10.23;3.72;;;21.50;61.30;;;;;;5015738;28;20562;-73
2022/01/30 01:53:58;;;;;;;13.07;3.72;;;21.40;61.40;;;;;;5016415;28;20366;-73
2022/01/30 01:56:25;;;;;;;11.90;3.88;;;21.40;61.30;;;;;;5015699;28;20079;-74
2022/01/30 01:59:02;;;;;;;10.30;3.25;;;21.40;61.30;;;;;;5015780;28;20037;-73
2022/01/30 02:01:52;;;;;;;8.85;3.40;;;21.50;61.10;;;;;;5018804;28;20112;-73
2022/01/30 02:04:20;;;;;;;13.02;3.50;;;21.40;61.20;;;;;;5032296;28;20029;-72
2022/01/30 02:06:49;;;;;;;10.60;3.70;;;21.40;61.20;;;;;;5015603;28;20065;-73
2022/01/30 02:09:14;;;;;;;10.80;3.50;;;21.50;60.90;;;;;;5015526;28;20025;-72
2022/01/30 02:11:44;;;;;;;11.73;3.78;;;21.50;61.20;;;;;;5015334;28;20033;-73
2022/01/30 02:27:55;;;;;;;8.60;3.17;;;21.40;60.80;;;;;;5015079;28;20394;-72
2022/01/30 02:30:21;;;;;;;7.72;3.47;;;21.50;60.90;;;;;;5014964;28;20026;-73
2022/01/30 02:32:48;;;;;;;8.05;3.17;;;21.40;60.80;;;;;;5015143;28;20032;-73
2022/01/30 02:35:14;;;;;;;8.73;3.03;;;21.40;60.80;;;;;;5015178;28;20029;-73
2022/01/30 02:37:40;;;;;;;10.48;3.75;;;21.50;60.80;;;;;;5031448;28;20359;-72
2022/01/30 02:40:10;;;;;;;9.93;3.42;;;21.50;60.80;;;;;;5014912;28;20112;-72
2022/01/30 02:42:40;;;;;;;8.77;3.30;;;21.40;60.60;;;;;;5014882;28;20025;-73
2022/01/30 02:45:09;;;;;;;;;;;21.40;60.60;;;;;;5015492;28;20031;-72
2022/01/30 02:50:13;;;;;;;10.23;3.25;;;21.40;60.60;;;;;;5014527;28;20508;-73
2022/01/30 02:52:41;;;;;;;8.80;3.13;;;21.40;60.60;;;;;;5031309;28;20041;-72
2022/01/30 02:55:09;;;;;;;9.70;3.42;;;21.40;60.60;;;;;;5014841;28;20498;-72
2022/01/30 02:57:35;;;;;;;11.38;3.63;;;21.40;60.50;;;;;;5014830;28;20048;-72
2022/01/30 03:00:03;;;;;;;8.05;2.90;;;21.40;60.50;;;;;;5014737;28;20026;-72
2022/01/30 03:02:28;;;;;;;9.82;3.10;;;21.40;60.80;;;;;;5014697;28;20037;-73
2022/01/30 03:04:54;;;;;;;7.05;2.95;;;21.40;60.20;;;;;;5032542;28;20026;-72
2022/01/30 03:07:20;;;;;;;9.18;3.15;;;21.40;60.10;;;;;;5016335;28;20033;-72
2022/01/30 03:09:54;;;;;;;9.57;3.33;;;21.40;60.10;;;;;;5015182;28;20063;-73
2022/01/30 03:12:21;;;;;;;9.80;3.10;;;21.40;60.30;;;;;;5014688;28;20063;-73
2022/01/30 03:14:47;;;;;;;11.07;3.28;;;21.40;60.30;;;;;;5014550;28;20030;-73
2022/01/30 03:17:13;;;;;;;10.85;3.40;;;21.40;60.10;;;;;;4998209;28;20041;-72
2022/01/30 03:19:39;;;;;;;11.77;3.40;;;21.40;60.10;;;;;;5014172;28;20029;-73
2022/01/30 03:22:04;;;;;;;10.82;3.05;;;21.40;59.80;;;;;;4997976;28;20044;-72
2022/01/30 03:24:35;;;;;;;8.38;3.10;;;21.40;60.40;;;;;;4998159;28;20038;-73
2022/01/30 03:27:12;;;;;;;8.95;3.00;;;21.40;59.10;;;;;;5014262;28;20044;-73
2022/01/30 03:30:02;;;;;;;10.20;3.28;;;21.40;59.80;;;;;;5030391;28;20482;-73
2022/01/30 03:32:47;;;;;;;8.25;2.90;;;21.40;59.50;;;;;;5031372;28;20034;-73
2022/01/30 03:35:13;;;;;;;10.43;2.97;;;21.40;60.40;;;;;;5014326;28;20037;-73
2022/01/30 03:37:39;;;;;;;8.75;3.35;;;21.40;59.80;;;;;;4997053;28;20026;-73
2022/01/30 03:40:05;;;;;;;10.63;3.15;;;21.40;59.80;;;;;;5031458;28;20497;-72
2022/01/30 03:42:31;;;;;;;7.60;2.80;;;21.40;59.50;;;;;;5014208;28;20033;-73
2022/01/30 03:44:57;;;;;;;7.70;3.03;;;21.40;59.60;;;;;;5014084;28;20437;-73
2022/01/30 03:47:24;;;;;;;12.02;3.30;;;21.40;59.60;;;;;;5014259;28;20033;-73
2022/01/30 03:49:51;;;;;;;12.02;3.42;;;21.40;59.60;;;;;;5013737;28;20037;-73
2022/01/30 03:52:17;;;;;;;9.02;3.05;;;21.40;59.30;;;;;;5014159;28;20037;-73
2022/01/30 03:54:44;;;;;;;8.48;2.90;;;21.40;59.50;;;;;;5014071;28;20116;-73
2022/01/30 03:57:11;;;;;;;7.13;2.85;;;21.40;59.60;;;;;;5013890;28;20076;-72
2022/01/30 03:59:51;;;;;;;10.07;3.03;;;21.40;59.60;;;;;;5013834;28;20057;-72
2022/01/30 04:02:17;;;;;;;7.85;2.72;;;21.40;59.50;;;;;;5013609;28;20084;-73
2022/01/30 04:04:43;;;;;;;8.20;3.13;;;21.40;59.20;;;;;;5031483;28;20026;-73
2022/01/30 04:07:09;;;;;;;11.55;3.50;;;21.40;59.30;;;;;;5030431;28;20034;-72
2022/01/30 04:09:47;;;;;;;10.60;2.92;;;21.40;59.40;;;;;;5031292;28;20037;-73
2022/01/30 04:12:18;;;;;;;8.35;2.80;;;21.40;59.20;;;;;;5030307;28;20043;-73
2022/01/30 04:15:01;;;;;;;10.52;3.05;;;21.40;59.50;;;;;;5031545;28;20060;-72
2022/01/30 04:17:48;;;;;;;7.72;3.10;;;21.40;59.30;;;;;;5013971;28;20472;-72
2022/01/30 04:20:31;;;;;;;9.15;3.08;;;21.40;59.40;;;;;;5013429;28;20589;-72
2022/01/30 04:23:12;;;;;;;8.93;3.25;;;21.30;59.30;;;;;;5030630;28;20359;-73
2022/01/30 04:25:59;;;;;;;8.07;3.05;;;21.40;59.10;;;;;;5014027;28;20064;-73
2022/01/30 04:28:45;;;;;;;9.15;2.90;;;21.40;59.00;;;;;;5022760;28;20407;-73
2022/01/30 04:31:35;;;;;;;7.60;2.85;;;21.40;59.00;;;;;;5013556;28;20033;-72
2022/01/30 04:34:21;;;;;;;8.70;3.03;;;21.40;59.20;;;;;;5013802;28;20029;-73
2022/01/30 04:37:15;;;;;;;7.75;2.92;;;21.40;59.00;;;;;;5031194;28;20032;-72
2022/01/30 04:52:23;;;;;;;10.18;2.90;;;21.40;59.00;;;;;;5024363;28;20049;-72
2022/01/30 04:58:26;;;;;;;9.10;2.80;;;21.40;58.90;;;;;;5016978;28;20038;-73
2022/01/30 05:01:10;;;;;;;8.02;2.80;;;21.40;58.80;;;;;;5034270;28;20033;-73
2022/01/30 05:06:33;;;;;;;9.05;3.13;;;21.40;58.80;;;;;;5016665;28;20030;-73
2022/01/30 05:09:11;;;;;;;7.38;2.38;;;21.40;58.80;;;;;;5016815;28;20033;-72
2022/01/30 05:11:59;;;;;;;10.20;2.92;;;21.40;58.70;;;;;;5034256;28;20116;-73
2022/01/30 05:15:04;;;;;;;7.40;2.85;;;21.30;58.70;;;;;;5012210;28;20121;-73
2022/01/30 05:17:49;;;;;;;9.52;3.05;;;21.40;58.70;;;;;;5012230;28;20549;-71
2022/01/30 05:20:38;;;;;;;8.15;2.83;;;21.40;58.80;;;;;;5028380;28;20045;-71
2022/01/30 05:23:16;;;;;;;8.85;3.20;;;21.40;58.60;;;;;;5033042;28;20119;-71
2022/01/30 05:26:07;;;;;;;6.68;2.80;;;21.30;58.60;;;;;;5033147;28;20111;-71
2022/01/30 05:28:34;;;;;;;6.93;2.50;;;21.30;58.30;;;;;;5016497;28;20025;-71
2022/01/30 05:31:20;;;;;;;9.35;3.25;;;21.30;58.60;;;;;;5015805;28;20032;-71
2022/01/30 05:34:07;;;;;;;9.93;2.92;;;21.40;58.50;;;;;;5033880;28;20052;-70
2022/01/30 05:37:02;;;;;;;8.48;2.92;;;21.30;58.60;;;;;;5033045;28;20052;-71
2022/01/30 05:39:46;;;;;;;8.57;2.90;;;21.30;58.30;;;;;;5033453;28;20367;-70
2022/01/30 05:42:33;;;;;;;5.95;2.65;;;21.30;58.40;;;;;;5032588;28;20441;-72
2022/01/30 05:45:31;;;;;;;8.52;3.10;;;21.30;58.30;;;;;;5033613;28;20072;-71
2022/01/30 05:48:14;;;;;;;8.18;3.08;;;21.30;58.30;;;;;;5033654;28;20027;-72
2022/01/30 05:50:54;;;;;;;8.50;2.50;;;21.30;58.00;;;;;;5015591;28;20041;-71
2022/01/30 05:53:30;;;;;;;8.82;2.70;;;21.30;58.30;;;;;;5032607;28;20033;-72
2022/01/30 05:56:09;;;;;;;7.32;2.60;;;21.30;58.30;;;;;;5015903;28;20030;-72
2022/01/30 05:58:34;;;;;;;8.35;3.03;;;21.30;58.10;;;;;;5015803;28;20029;-72
2022/01/30 06:01:07;;;;;;;6.93;2.42;;;21.30;58.20;;;;;;5014302;28;20105;-72
2022/01/30 06:03:33;;;;;;;7.47;2.63;;;21.30;58.30;;;;;;5033350;28;20522;-72
2022/01/30 06:06:02;;;;;;;9.27;3.10;;;21.30;58.80;;;;;;5015576;28;20026;-72
2022/01/30 06:09:19;;;;;;;8.05;2.90;;;21.30;58.10;;;;;;5015526;28;20025;-72
2022/01/30 06:11:14;;;;;;;7.93;2.78;;;21.30;58.20;;;;;;5014771;28;20370;-72
2022/01/30 06:13:40;;;;;;;6.50;2.28;;;21.30;58.10;;;;;;5032148;28;20044;-72
2022/01/30 06:16:06;;;;;;;6.75;2.80;;;21.30;58.00;;;;;;5015411;28;20029;-72
2022/01/30 06:18:32;;;;;;;8.68;3.15;;;21.30;58.10;;;;;;5015449;28;20086;-72
2022/01/30 06:21:18;;;;;;;7.30;2.60;;;21.30;58.00;;;;;;5021422;28;20235;-72
2022/01/30 06:23:47;;;;;;;6.57;2.83;;;21.30;58.00;;;;;;5033112;28;20021;-72
2022/01/30 06:26:31;;;;;;;7.63;3.03;;;21.30;57.80;;;;;;5033124;28;20060;-72
2022/01/30 06:29:20;;;;;;;8.55;3.10;;;21.30;58.00;;;;;;5013012;28;20067;-71
2022/01/30 06:32:05;;;;;;;7.30;2.75;;;21.30;58.00;;;;;;5032751;28;20501;-72
2022/01/30 06:34:50;;;;;;;7.78;2.78;;;21.30;57.90;;;;;;5032893;28;20025;-72
2022/01/30 06:37:38;;;;;;;6.40;2.47;;;21.30;57.80;;;;;;5017680;28;20037;-72
2022/01/30 06:40:27;;;;;;;5.90;2.40;;;21.30;57.80;;;;;;5014916;28;20575;-72
2022/01/30 06:42:56;;;;;;;6.82;3.00;;;21.30;57.90;;;;;;5032814;28;20083;-72
2022/01/30 06:45:42;;;;;;;8.68;3.10;;;21.30;57.70;;;;;;5032547;28;20029;-72
2022/01/30 06:48:28;;;;;;;8.20;3.22;;;21.30;57.80;;;;;;5032302;28;20501;-72
2022/01/30 06:51:12;;;;;;;8.68;2.90;;;21.30;57.70;;;;;;5014656;28;20432;-72
2022/01/30 06:53:56;;;;;;;7.70;2.92;;;21.30;57.80;;;;;;5032527;28;20029;-71
2022/01/30 06:56:40;;;;;;;6.57;2.95;;;21.30;57.70;;;;;;5032133;28;20035;-72
2022/01/30 06:59:24;;;;;;;7.78;2.72;;;21.30;57.70;;;;;;5032055;28;20034;-72
2022/01/30 07:02:09;;;;;;;7.15;2.80;;;21.30;57.70;;;;;;5032208;28;20138;-72
2022/01/30 07:04:50;;;;;;;8.13;3.05;;;21.30;57.50;;;;;;5032429;28;20041;-72
2022/01/30 07:07:37;;;;;;;7.78;3.13;;;21.30;57.60;;;;;;5014470;28;20036;-71
2022/01/30 07:10:06;;;;;;;7.15;2.95;;;21.30;57.60;;;;;;4997979;28;20110;-73
2022/01/30 07:12:32;;;;;;;7.82;2.92;;;21.30;57.30;;;;;;5031923;28;20032;-72
2022/01/30 07:14:58;;;;;;;8.35;3.28;;;21.30;57.60;;;;;;5032008;28;20386;-71
2022/01/30 07:17:23;;;;;;;9.55;3.42;;;21.30;57.40;;;;;;5031888;28;20033;-71
2022/01/30 07:19:49;;;;;;;7.97;3.05;;;21.30;57.10;;;;;;5031541;28;20041;-72
2022/01/30 07:22:15;;;;;;;9.80;3.10;;;21.30;57.30;;;;;;5031750;28;20033;-72
2022/01/30 07:24:40;;;;;;;7.63;3.10;;;21.30;57.10;;;;;;5030889;28;20422;-72
2022/01/30 07:27:06;;;;;;;7.15;3.00;;;21.30;57.20;;;;;;5031905;28;20048;-72
2022/01/30 07:29:32;;;;;;;9.00;3.13;;;21.30;57.70;;;;;;5031449;28;20017;-72
2022/01/30 07:31:57;;;;;;;8.82;3.15;;;21.30;57.20;;;;;;5031384;28;20036;-72
2022/01/30 07:34:23;;;;;;;8.60;3.08;;;21.30;57.10;;;;;;5031675;28;20025;-71
2022/01/30 07:36:50;;;;;;;7.93;3.25;;;21.30;57.10;;;;;;5031571;28;20367;-72
2022/01/30 07:39:16;;;;;;;6.85;3.03;;;21.30;57.10;;;;;;5030386;28;20029;-71
2022/01/30 07:41:44;;;;;;;8.70;3.30;;;21.30;56.90;;;;;;5031250;28;20080;-71
2022/01/30 07:44:14;;;;;;;9.18;3.45;;;21.30;57.00;;;;;;5014029;28;20072;-71
2022/01/30 07:46:42;;;;;;;9.15;3.28;;;21.30;57.10;;;;;;5013895;28;20029;-71
2022/01/30 07:49:07;;;;;;;9.30;3.05;;;21.30;57.10;;;;;;5031626;28;20523;-72
2022/01/30 07:51:33;;;;;;;9.00;3.70;;;21.30;57.10;;;;;;5031130;28;20026;-72
2022/01/30 07:53:59;;;;;;;9.05;3.10;;;21.30;56.90;;;;;;5031617;28;20029;-72
2022/01/30 07:59:02;;;;;;;9.50;3.67;;;21.30;56.80;;;;;;5008520;28;20046;-75
2022/01/30 08:01:28;;;;;;;8.70;3.63;;;21.30;57.00;;;;;;5002370;28;20025;-75
2022/01/30 08:03:53;;;;;;;8.63;3.47;;;21.30;56.90;;;;;;5011861;28;20104;-75
2022/01/30 08:06:19;;;;;;;8.77;3.28;;;21.30;56.80;;;;;;5010829;28;20021;-75
2022/01/30 08:08:45;;;;;;;9.00;3.53;;;21.30;56.90;;;;;;5010566;28;20029;-74
2022/01/30 08:11:11;;;;;;;9.88;3.72;;;21.30;56.80;;;;;;5010258;28;20045;-75
2022/01/30 08:13:37;;;;;;;9.93;3.72;;;21.30;56.80;;;;;;5010587;28;20030;-75
2022/01/30 08:16:03;;;;;;;9.40;3.28;;;21.30;56.50;;;;;;5010650;28;20026;-75
2022/01/30 08:18:28;;;;;;;10.35;3.53;;;21.30;56.60;;;;;;5011633;28;20096;-75
2022/01/30 08:20:55;;;;;;;8.63;3.20;;;21.30;56.70;;;;;;5011528;28;20029;-75
2022/01/30 08:23:23;;;;;;;11.68;3.60;;;21.30;56.80;;;;;;5010679;28;20084;-75
2022/01/30 08:25:49;;;;;;;6.97;3.05;;;21.30;56.50;;;;;;5015432;28;20471;-76
2022/01/30 08:28:15;;;;;;;8.65;3.50;;;21.30;56.50;;;;;;5014607;28;20076;-75
2022/01/30 08:30:40;;;;;;;9.07;3.33;;;21.30;56.80;;;;;;4998061;28;20026;-76
2022/01/30 08:33:06;;;;;;;9.52;3.40;;;21.30;56.70;;;;;;5014476;28;20541;-76
2022/01/30 08:35:32;;;;;;;8.60;3.40;;;21.30;56.60;;;;;;5015570;28;20029;-75
2022/01/30 08:37:59;;;;;;;10.25;3.50;;;21.30;56.30;;;;;;5015338;28;20080;-75
2022/01/30 08:40:26;;;;;;;9.85;3.53;;;21.30;56.50;;;;;;5013818;28;20022;-76
2022/01/30 08:42:52;;;;;;;10.65;4.07;;;21.30;56.50;;;;;;5013995;28;20502;-75
2022/01/30 08:45:20;;;;;;;9.52;3.58;;;21.30;56.50;;;;;;5015365;28;20092;-75
2022/01/30 08:47:48;;;;;;;9.23;3.33;;;21.30;56.50;;;;;;5015660;28;20564;-75
2022/01/30 08:50:15;;;;;;;8.55;3.65;;;21.30;56.40;;;;;;5013871;28;20029;-76
2022/01/30 08:52:41;;;;;;;8.60;3.22;;;21.30;56.50;;;;;;5013778;28;20029;-76
2022/01/30 08:55:09;;;;;;;8.63;3.35;;;21.30;56.40;;;;;;5015545;28;20064;-76
2022/01/30 08:57:35;;;;;;;10.82;3.60;;;21.30;57.00;;;;;;4997221;28;20038;-75
2022/01/30 09:00:03;;;;;;;9.27;3.20;;;21.30;56.50;;;;;;5014662;28;20112;-76
2022/01/30 09:02:28;;;;;;;8.63;3.22;;;21.30;56.20;;;;;;5014826;28;20399;-76
2022/01/30 09:04:54;;;;;;;10.15;3.50;;;21.30;55.70;;;;;;5014933;28;20029;-76
2022/01/30 09:07:20;;;;;;;10.68;3.78;;;21.30;55.80;;;;;;5015226;28;20558;-76
2022/01/30 09:09:46;;;;;;;8.55;3.42;;;21.30;56.40;;;;;;5013460;28;20037;-76
2022/01/30 09:12:12;;;;;;;8.73;3.47;;;21.30;56.10;;;;;;5013469;28;20363;-76
2022/01/30 09:14:44;;;;;;;8.73;3.20;;;21.30;56.30;;;;;;5014711;28;20060;-76
2022/01/30 09:17:14;;;;;;;8.10;3.03;;;21.30;56.30;;;;;;4997397;28;20034;-76
2022/01/30 09:19:41;;;;;;;10.02;3.47;;;21.30;56.30;;;;;;4996869;28;20235;-76
2022/01/30 09:22:08;;;;;;;8.23;3.20;;;21.30;56.20;;;;;;5014496;28;20129;-76
2022/01/30 09:24:35;;;;;;;9.02;3.10;;;21.30;56.10;;;;;;5013240;28;20306;-75
2022/01/30 09:27:01;;;;;;;8.65;3.53;;;21.30;55.70;;;;;;5013143;28;20396;-75
2022/01/30 09:29:28;;;;;;;10.23;3.30;;;21.30;55.90;;;;;;5014232;28;20018;-75
2022/01/30 09:31:55;;;;;;;10.18;3.53;;;21.30;56.10;;;;;;5013369;28;20546;-75
2022/01/30 09:34:21;;;;;;;10.73;3.80;;;21.30;55.90;;;;;;5013180;28;20471;-75
2022/01/30 09:36:47;;;;;;;9.88;3.63;;;21.30;55.90;;;;;;4996708;28;20041;-76
2022/01/30 09:39:12;;;;;;;10.02;3.10;;;21.30;55.90;;;;;;5014305;28;20040;-76
2022/01/30 09:41:38;;;;;;;8.25;3.33;;;21.30;55.50;;;;;;5012997;28;20030;-76
2022/01/30 09:44:04;;;;;;;9.82;3.63;;;21.30;55.70;;;;;;5014530;28;20030;-76
2022/01/30 09:46:31;;;;;;;8.63;3.13;;;21.30;55.90;;;;;;5014074;28;20030;-76
2022/01/30 09:48:59;;;;;;;10.68;3.38;;;21.30;56.00;;;;;;5012992;28;20030;-76
2022/01/30 09:51:25;;;;;;;9.90;3.40;;;21.30;56.00;;;;;;5012862;28;20080;-76
2022/01/30 09:53:51;;;;;;;8.45;3.38;;;21.30;55.90;;;;;;5013999;28;20036;-76
2022/01/30 09:56:18;;;;;;;7.88;3.03;;;21.30;55.80;;;;;;5013914;28;20033;-75
2022/01/30 09:58:45;;;;;;;9.70;3.60;;;21.30;55.70;;;;;;5013657;28;20041;-75
2022/01/30 10:01:11;;;;;;;11.68;3.47;;;21.30;55.90;;;;;;5012387;28;20059;-74
2022/01/30 10:03:37;;;;;;;9.10;3.72;;;21.30;55.80;;;;;;5012926;28;20022;-74
2022/01/30 10:06:16;;;;;;;9.43;3.47;;;21.40;55.90;;;;;;5013762;28;20034;-74
2022/01/30 10:08:44;;;;;;;10.30;3.90;;;21.30;55.90;;;;;;4996559;28;20045;-76
2022/01/30 10:11:33;;;;;;;10.60;3.40;;;21.30;55.90;;;;;;4995916;28;20487;-75
2022/01/30 10:14:25;;;;;;;8.20;3.17;;;21.30;55.90;;;;;;5013512;28;20032;-75
2022/01/30 10:16:51;;;;;;;12.63;3.60;;;21.30;56.00;;;;;;5010607;28;20045;-74
2022/01/30 10:19:20;;;;;;;9.23;3.70;;;21.30;55.80;;;;;;5013425;28;20368;-75
2022/01/30 10:22:08;;;;;;;9.02;3.13;;;21.30;55.70;;;;;;5013431;28;20040;-75
2022/01/30 10:25:07;;;;;;;11.20;3.35;;;21.30;56.40;;;;;;5005160;28;20046;-75
2022/01/30 10:27:39;;;;;;;10.05;3.50;;;21.30;55.90;;;;;;4996717;28;20102;-75
2022/01/30 10:30:18;;;;;;;9.05;3.60;;;21.30;55.70;;;;;;5012903;28;20101;-75
2022/01/30 10:32:56;;;;;;;8.38;3.33;;;21.30;55.70;;;;;;5011799;28;20073;-75
2022/01/30 10:35:23;;;;;;;8.77;3.28;;;21.30;55.60;;;;;;5012415;28;20114;-74
2022/01/30 10:37:49;;;;;;;11.93;3.65;;;21.30;55.30;;;;;;5013038;28;20534;-75
2022/01/30 10:40:27;;;;;;;8.30;3.05;;;21.30;55.70;;;;;;5012685;28;20081;-75
2022/01/30 10:42:53;;;;;;;9.88;3.53;;;21.30;55.70;;;;;;5013075;28;20534;-75
2022/01/30 10:45:31;;;;;;;10.32;3.90;;;21.30;55.70;;;;;;5011899;28;20029;-75
2022/01/30 10:48:12;;;;;;;12.27;3.70;;;21.30;55.50;;;;;;5011218;28;20080;-75
2022/01/30 10:50:44;;;;;;;9.05;3.50;;;21.30;55.70;;;;;;5011509;28;20041;-76
2022/01/30 10:53:21;;;;;;;7.85;3.58;;;21.30;55.50;;;;;;5011746;28;20038;-76
2022/01/30 10:55:48;;;;;;;9.00;2.80;;;21.30;55.70;;;;;;5011411;28;20080;-75
2022/01/30 10:58:23;;;;;;;8.57;3.38;;;21.30;55.60;;;;;;5012979;28;20034;-75
2022/01/30 11:00:55;;;;;;;9.70;3.50;;;21.30;55.70;;;;;;5012355;28;20037;-76
2022/01/30 11:03:55;;;;;;;9.25;3.40;;;21.30;55.30;;;;;;5012831;28;20022;-75
2022/01/30 11:06:21;;;;;;;8.30;3.45;;;21.30;55.50;;;;;;4979994;28;20046;-76
2022/01/30 11:08:50;;;;;;;9.93;3.47;;;21.30;55.50;;;;;;5012919;28;20363;-76
2022/01/30 11:11:42;;;;;;;9.63;3.45;;;21.30;55.50;;;;;;5012581;28;20034;-76
2022/01/30 11:19:21;;;;;;;8.30;3.30;;;21.30;55.40;;;;;;5012237;28;20025;-75
2022/01/30 11:21:52;;;;;;;9.43;3.60;;;21.30;55.00;;;;;;5012381;28;20034;-75
2022/01/30 11:24:19;;;;;;;10.20;3.30;;;21.30;55.40;;;;;;5012397;28;20487;-75
2022/01/30 11:26:46;;;;;;;9.38;3.20;;;21.30;55.50;;;;;;5012336;28;20105;-75
2022/01/30 11:29:14;;;;;;;9.93;3.53;;;21.30;55.40;;;;;;5012362;28;20037;-75
2022/01/30 11:31:41;;;;;;;9.30;3.50;;;21.30;55.40;;;;;;5012076;28;20045;-75
2022/01/30 11:34:07;;;;;;;8.82;3.30;;;21.30;55.50;;;;;;5012344;28;20112;-75
2022/01/30 11:36:37;;;;;;;6.95;3.03;;;21.30;55.40;;;;;;5012148;28;20057;-75
2022/01/30 11:39:04;;;;;;;9.95;3.70;;;21.30;55.40;;;;;;5012127;28;20368;-75
2022/01/30 11:41:31;;;;;;;8.65;3.50;;;21.30;55.40;;;;;;5011685;28;20061;-75
2022/01/30 11:44:19;;;;;;;9.18;3.30;;;21.30;55.40;;;;;;5012238;28;20054;-75
2022/01/30 11:46:59;;;;;;;10.18;3.88;;;21.30;55.30;;;;;;5012039;28;20026;-75
2022/01/30 11:50:00;;;;;;;10.68;3.60;;;21.30;55.40;;;;;;5011753;28;20026;-75
2022/01/30 11:52:45;;;;;;;10.05;3.63;;;21.30;55.40;;;;;;4997687;28;20450;-75
2022/01/30 11:55:48;;;;;;;9.65;3.78;;;21.30;55.20;;;;;;5012066;28;20124;-75
2022/01/30 11:58:37;;;;;;;11.10;4.00;;;21.30;55.40;;;;;;5011882;28;20407;-74
2022/01/30 12:01:25;;;;;;;9.93;3.50;;;21.30;55.10;;;;;;5015779;28;20026;-74
2022/01/30 12:03:59;;;;;;;8.65;3.10;;;21.30;55.20;;;;;;5016055;28;20064;-75
2022/01/30 12:06:25;;;;;;;9.73;3.55;;;21.30;55.30;;;;;;5015971;28;20454;-75
2022/01/30 12:08:52;;;;;;;7.85;3.60;;;21.30;55.20;;;;;;5014588;28;20552;-76
2022/01/30 12:11:36;;;;;;;8.82;3.42;;;21.30;55.30;;;;;;5014507;28;20045;-75
2022/01/30 12:14:04;;;;;;;10.13;3.50;;;21.30;55.20;;;;;;5014698;28;20047;-74
2022/01/30 12:16:43;;;;;;;9.60;4.00;;;21.30;55.30;;;;;;5015778;28;20033;-75
2022/01/30 12:19:11;;;;;;;9.57;3.30;;;21.30;54.80;;;;;;5014499;28;20030;-75
2022/01/30 12:21:38;;;;;;;8.45;3.25;;;21.30;54.90;;;;;;5014106;28;20025;-75
2022/01/30 12:24:23;;;;;;;9.68;3.38;;;21.30;55.80;;;;;;5014462;28;20030;-74
2022/01/30 12:26:50;;;;;;;10.32;3.65;;;21.30;54.80;;;;;;5014396;28;20033;-74
2022/01/30 12:29:40;;;;;;;9.07;3.40;;;21.30;54.90;;;;;;4982129;28;20052;-75
2022/01/30 12:32:22;;;;;;;8.77;3.50;;;21.30;55.20;;;;;;5008206;28;20049;-76
2022/01/30 12:34:56;;;;;;;9.52;3.75;;;21.30;54.80;;;;;;5015620;28;20116;-74
2022/01/30 12:37:33;;;;;;;10.32;3.42;;;21.30;54.60;;;;;;5015497;28;20026;-75
2022/01/30 12:40:13;;;;;;;8.55;3.47;;;21.30;55.00;;;;;;5015319;28;20037;-75
2022/01/30 12:42:39;;;;;;;9.77;3.65;;;21.30;55.00;;;;;;5015405;28;20040;-76
2022/01/30 12:45:08;;;;;;;9.40;3.72;;;21.30;55.10;;;;;;5015305;28;20030;-74
2022/01/30 12:47:48;;;;;;;13.38;3.33;;;21.30;55.00;;;;;;5014008;28;20022;-75
2022/01/30 12:50:14;;;;;;;;;;;21.30;55.00;;;;;;5014343;28;20521;-75
2022/01/30 12:52:40;;;;;;;10.95;3.80;;;21.30;55.00;;;;;;5015180;28;19909;-75
2022/01/30 12:55:11;;;;;;;10.00;3.72;;;21.30;54.70;;;;;;5014114;28;20049;-74
2022/01/30 12:57:40;;;;;;;9.55;3.92;;;21.30;55.00;;;;;;5013994;28;20029;-74
2022/01/30 13:00:08;;;;;;;9.85;3.55;;;21.30;55.00;;;;;;5013572;28;20038;-74
2022/01/30 13:02:36;;;;;;;9.63;3.80;;;21.30;54.80;;;;;;4997799;28;20053;-75
2022/01/30 13:05:08;;;;;;;9.18;3.55;;;21.30;55.00;;;;;;5013992;28;20030;-74
2022/01/30 13:07:35;;;;;;;12.73;4.15;;;21.30;54.90;;;;;;5014015;28;20026;-74
2022/01/30 13:10:09;;;;;;;10.25;3.70;;;21.30;54.40;;;;;;5013163;28;20053;-75
2022/01/30 13:12:35;;;;;;;9.45;3.60;;;21.30;54.80;;;;;;5014765;28;20088;-74
2022/01/30 13:15:15;;;;;;;10.15;3.67;;;21.30;54.80;;;;;;5014720;28;20037;-75
2022/01/30 13:17:41;;;;;;;9.80;3.42;;;21.30;54.90;;;;;;5013213;28;20034;-75
2022/01/30 13:20:10;;;;;;;10.98;3.85;;;21.30;54.60;;;;;;4996728;28;20083;-75
2022/01/30 13:22:43;;;;;;;10.85;4.25;;;21.30;55.00;;;;;;4997088;28;20041;-75
2022/01/30 13:25:17;;;;;;;10.50;3.67;;;21.30;54.60;;;;;;4997092;28;20088;-75
2022/01/30 13:27:48;;;;;;;9.50;3.38;;;21.30;54.70;;;;;;5014391;28;20083;-74
2022/01/30 13:30:22;;;;;;;9.05;3.60;;;21.30;54.40;;;;;;5013972;28;20026;-75
2022/01/30 13:32:49;;;;;;;10.15;3.72;;;21.30;54.70;;;;;;5014293;28;20026;-74
2022/01/30 13:35:17;;;;;;;9.48;3.50;;;21.30;54.30;;;;;;5012954;28;20083;-75
2022/01/30 13:37:45;;;;;;;9.98;3.85;;;21.30;54.30;;;;;;5012791;28;20128;-75
2022/01/30 13:40:21;;;;;;;11.35;3.80;;;21.30;54.60;;;;;;5013718;28;20105;-74
2022/01/30 13:42:59;;;;;;;7.80;3.53;;;21.30;54.50;;;;;;5013997;28;20036;-74
2022/01/30 13:48:03;;;;;;;9.57;3.75;;;21.30;54.20;;;;;;5012814;28;20034;-74
2022/01/30 13:50:35;;;;;;;9.82;3.83;;;21.30;54.50;;;;;;5012625;28;20394;-75
2022/01/30 13:53:06;;;;;;;9.15;3.67;;;21.30;54.20;;;;;;5012595;28;20037;-75
2022/01/30 13:55:34;;;;;;;11.52;3.90;;;21.30;54.60;;;;;;5012546;28;20501;-73
2022/01/30 13:58:01;;;;;;;10.25;3.83;;;21.30;54.70;;;;;;5032064;23;20163;-68
2022/01/30 14:00:31;;;;;;;11.27;3.97;;;21.30;54.50;;;;;;5031009;28;20092;-67
2022/01/30 14:03:05;;;;;;;9.32;3.50;;;21.30;54.70;;;;;;5031667;28;20027;-67
2022/01/30 14:05:39;;;;;;;10.60;3.58;;;21.30;54.80;;;;;;5033311;28;20031;-67
2022/01/30 14:08:18;;;;;;;11.18;3.97;;;21.30;54.80;;;;;;5033017;28;20402;-67